Weston, Missouri
Current Conditions -  °F | °C
As of 8:53 PM on Wednesday 26 Nov 2014 (Local Time) from KMCI Reporting Station
Overcast Overcast  
Wind Chill: 18°   Ceiling: 1900
Heat Index: 29°   Visibility: 10mi
Dew Point: 22°   Wind: 15mph
Humidity: 75%   Direction: 340°NNW
Pressure: 30.32"   Gusts: 28mph
Location:  39.41°N, 94.9°W
Report Text: KMCI 270253Z 34013G24KT 10SM OVC019 M02/M06 A3032 RMK AO2 PK WND 34028/0200 SLP276 T10171056 53038
Loading
Personal Weather Stations






























Interactive Weather Map New forecast layout! Learn more

10-Day Weather Forecast

Advertisements
Track Severe Weather on mobile